sensor_id;sensor_type;location;lat;lon;timestamp;pressure;altitude;pressure_sealevel;temperature;humidity
69153;BME280;56261;51.580;4.578;2023-08-01T00:02:17;100059.63;;;16.18;100.00
69153;BME280;56261;51.580;4.578;2023-08-01T00:04:42;100063.19;;;16.12;100.00
69153;BME280;56261;51.580;4.578;2023-08-01T00:07:08;100067.56;;;16.13;100.00
69153;BME280;56261;51.580;4.578;2023-08-01T00:09:33;100059.09;;;16.09;100.00
69153;BME280;56261;51.580;4.578;2023-08-01T00:11:58;100054.41;;;16.05;100.00
69153;BME280;56261;51.580;4.578;2023-08-01T00:14:24;100044.44;;;16.05;100.00
69153;BME280;56261;51.580;4.578;2023-08-01T00:16:50;100042.13;;;16.09;100.00
69153;BME280;56261;51.580;4.578;2023-08-01T00:19:15;100040.13;;;16.04;100.00
69153;BME280;56261;51.580;4.578;2023-08-01T00:21:41;100034.38;;;16.01;100.00
69153;BME280;56261;51.580;4.578;2023-08-01T00:24:06;100042.22;;;16.02;100.00
69153;BME280;56261;51.580;4.578;2023-08-01T00:26:33;100035.22;;;16.01;100.00
69153;BME280;56261;51.580;4.578;2023-08-01T00:28:59;100035.63;;;15.98;100.00
69153;BME280;56261;51.580;4.578;2023-08-01T00:31:24;100041.47;;;15.95;100.00
69153;BME280;56261;51.580;4.578;2023-08-01T00:33:49;100039.41;;;15.97;100.00
69153;BME280;56261;51.580;4.578;2023-08-01T00:36:15;100034.91;;;15.91;100.00
69153;BME280;56261;51.580;4.578;2023-08-01T00:38:40;100040.50;;;15.89;100.00
69153;BME280;56261;51.580;4.578;2023-08-01T00:41:08;100033.09;;;15.85;100.00
69153;BME280;56261;51.580;4.578;2023-08-01T00:43:34;100034.25;;;15.77;100.00
69153;BME280;56261;51.580;4.578;2023-08-01T00:46:00;100042.09;;;15.79;100.00
69153;BME280;56261;51.580;4.578;2023-08-01T00:48:29;100042.53;;;15.75;100.00
69153;BME280;56261;51.580;4.578;2023-08-01T00:50:56;100032.00;;;15.74;100.00
69153;BME280;56261;51.580;4.578;2023-08-01T00:53:23;100019.81;;;15.71;100.00
69153;BME280;56261;51.580;4.578;2023-08-01T00:55:51;100039.00;;;15.75;100.00
69153;BME280;56261;51.580;4.578;2023-08-01T00:58:17;100027.81;;;15.78;100.00
69153;BME280;56261;51.580;4.578;2023-08-01T01:00:42;100035.50;;;15.74;100.00
69153;BME280;56261;51.580;4.578;2023-08-01T01:03:08;100034.97;;;15.84;100.00
69153;BME280;56261;51.580;4.578;2023-08-01T01:05:36;100034.38;;;15.82;100.00
69153;BME280;56261;51.580;4.578;2023-08-01T01:08:04;100025.34;;;15.76;100.00
69153;BME280;56261;51.580;4.578;2023-08-01T01:10:30;100032.56;;;15.76;100.00
69153;BME280;56261;51.580;4.578;2023-08-01T01:12:56;100039.09;;;15.87;100.00
69153;BME280;56261;51.580;4.578;2023-08-01T01:15:22;100031.41;;;15.90;100.00
69153;BME280;56261;51.580;4.578;2023-08-01T01:17:47;100027.06;;;15.89;100.00
69153;BME280;56261;51.580;4.578;2023-08-01T01:20:13;100021.25;;;15.92;100.00
69153;BME280;56261;51.580;4.578;2023-08-01T01:22:39;100032.13;;;15.97;100.00
69153;BME280;56261;51.580;4.578;2023-08-01T01:25:07;100021.31;;;16.04;100.00
69153;BME280;56261;51.580;4.578;2023-08-01T01:27:34;100017.66;;;15.98;100.00
69153;BME280;56261;51.580;4.578;2023-08-01T01:30:00;100011.22;;;16.00;100.00
69153;BME280;56261;51.580;4.578;2023-08-01T01:32:27;100012.13;;;15.93;100.00
69153;BME280;56261;51.580;4.578;2023-08-01T01:34:53;100008.81;;;15.91;100.00
69153;BME280;56261;51.580;4.578;2023-08-01T01:37:18;100011.22;;;16.00;100.00
69153;BME280;56261;51.580;4.578;2023-08-01T01:39:44;100020.69;;;16.02;100.00
69153;BME280;56261;51.580;4.578;2023-08-01T01:42:09;100011.91;;;15.95;100.00
69153;BME280;56261;51.580;4.578;2023-08-01T01:44:35;100011.69;;;15.96;100.00
69153;BME280;56261;51.580;4.578;2023-08-01T01:47:00;100009.81;;;15.97;100.00
69153;BME280;56261;51.580;4.578;2023-08-01T01:49:26;100021.97;;;16.00;100.00
69153;BME280;56261;51.580;4.578;2023-08-01T01:51:51;100008.75;;;15.98;100.00
69153;BME280;56261;51.580;4.578;2023-08-01T01:54:16;100012.13;;;15.93;100.00
69153;BME280;56261;51.580;4.578;2023-08-01T01:56:42;100010.03;;;15.95;100.00
69153;BME280;56261;51.580;4.578;2023-08-01T01:59:07;100006.06;;;15.98;100.00
69153;BME280;56261;51.580;4.578;2023-08-01T02:01:32;100010.41;;;15.99;100.00
69153;BME280;56261;51.580;4.578;2023-08-01T02:03:58;100017.66;;;15.98;100.00
69153;BME280;56261;51.580;4.578;2023-08-01T02:06:23;100017.66;;;15.98;100.00
69153;BME280;56261;51.580;4.578;2023-08-01T02:08:48;100024.13;;;16.09;100.00
69153;BME280;56261;51.580;4.578;2023-08-01T02:11:14;100012.84;;;16.01;100.00
69153;BME280;56261;51.580;4.578;2023-08-01T02:13:39;100007.38;;;16.07;100.00
69153;BME280;56261;51.580;4.578;2023-08-01T02:16:04;100014.78;;;16.12;100.00
69153;BME280;56261;51.580;4.578;2023-08-01T02:18:30;100012.09;;;16.12;100.00
69153;BME280;56261;51.580;4.578;2023-08-01T02:20:55;99996.63;;;16.07;100.00
69153;BME280;56261;51.580;4.578;2023-08-01T02:23:20;99998.16;;;16.03;100.00
69153;BME280;56261;51.580;4.578;2023-08-01T02:25:46;99997.56;;;16.01;100.00
69153;BME280;56261;51.580;4.578;2023-08-01T02:28:11;99997.31;;;16.03;100.00
69153;BME280;56261;51.580;4.578;2023-08-01T02:30:38;99997.38;;;15.96;100.00
69153;BME280;56261;51.580;4.578;2023-08-01T02:33:03;100010.75;;;16.03;100.00
69153;BME280;56261;51.580;4.578;2023-08-01T02:35:29;100006.06;;;15.98;100.00
69153;BME280;56261;51.580;4.578;2023-08-01T02:37:55;100003.97;;;16.00;100.00
69153;BME280;56261;51.580;4.578;2023-08-01T02:40:21;99998.59;;;16.00;100.00
69153;BME280;56261;51.580;4.578;2023-08-01T02:42:46;100008.53;;;16.00;100.00
69153;BME280;56261;51.580;4.578;2023-08-01T02:45:12;100009.94;;;16.02;100.00
69153;BME280;56261;51.580;4.578;2023-08-01T02:47:37;100010.53;;;16.04;100.00
69153;BME280;56261;51.580;4.578;2023-08-01T02:50:03;100009.34;;;16.00;100.00
69153;BME280;56261;51.580;4.578;2023-08-01T02:52:29;100010.63;;;15.97;100.00
69153;BME280;56261;51.580;4.578;2023-08-01T02:54:55;100007.56;;;15.94;100.00
69153;BME280;56261;51.580;4.578;2023-08-01T02:57:20;99994.66;;;15.84;100.00
69153;BME280;56261;51.580;4.578;2023-08-01T02:59:46;100012.94;;;15.94;100.00
69153;BME280;56261;51.580;4.578;2023-08-01T03:02:12;100009.06;;;15.90;100.00
69153;BME280;56261;51.580;4.578;2023-08-01T03:04:37;100005.25;;;15.97;100.00
69153;BME280;56261;51.580;4.578;2023-08-01T03:07:03;100010.84;;;15.96;100.00
69153;BME280;56261;51.580;4.578;2023-08-01T03:09:28;100010.16;;;16.01;100.00
69153;BME280;56261;51.580;4.578;2023-08-01T03:11:54;100011.69;;;15.96;100.00
69153;BME280;56261;51.580;4.578;2023-08-01T03:14:19;100010.16;;;16.01;100.00
69153;BME280;56261;51.580;4.578;2023-08-01T03:16:45;100011.91;;;15.95;100.00
69153;BME280;56261;51.580;4.578;2023-08-01T03:19:10;100009.81;;;15.97;100.00
69153;BME280;56261;51.580;4.578;2023-08-01T03:21:36;100014.03;;;16.05;100.00
69153;BME280;56261;51.580;4.578;2023-08-01T03:24:02;100013.09;;;15.99;100.00
69153;BME280;56261;51.580;4.578;2023-08-01T03:26:28;100017.56;;;16.05;100.00
69153;BME280;56261;51.580;4.578;2023-08-01T03:28:55;100021.59;;;15.96;100.00
69153;BME280;56261;51.580;4.578;2023-08-01T03:31:22;100022.44;;;15.96;100.00
69153;BME280;56261;51.580;4.578;2023-08-01T03:33:47;100011.00;;;16.01;100.00
69153;BME280;56261;51.580;4.578;2023-08-01T03:36:13;100016.81;;;15.98;100.00
69153;BME280;56261;51.580;4.578;2023-08-01T03:38:38;100015.47;;;15.89;100.00
69153;BME280;56261;51.580;4.578;2023-08-01T03:41:04;100020.66;;;15.90;100.00
69153;BME280;56261;51.580;4.578;2023-08-01T03:43:29;100018.63;;;15.86;100.00
69153;BME280;56261;51.580;4.578;2023-08-01T03:45:55;100017.06;;;15.78;100.00
69153;BME280;56261;51.580;4.578;2023-08-01T03:48:20;100021.66;;;15.89;100.00
69153;BME280;56261;51.580;4.578;2023-08-01T03:50:45;100024.97;;;15.91;100.00
69153;BME280;56261;51.580;4.578;2023-08-01T03:53:11;100015.47;;;15.89;100.00
69153;BME280;56261;51.580;4.578;2023-08-01T03:55:37;100022.72;;;15.88;100.00
69153;BME280;56261;51.580;4.578;2023-08-01T03:58:02;100011.31;;;15.93;100.00
69153;BME280;56261;51.580;4.578;2023-08-01T04:00:27;100019.66;;;15.85;100.00
69153;BME280;56261;51.580;4.578;2023-08-01T04:02:58;100010.56;;;15.86;100.00
69153;BME280;56261;51.580;4.578;2023-08-01T04:05:23;100021.38;;;15.97;100.00
69153;BME280;56261;51.580;4.578;2023-08-01T04:07:49;100017.75;;;15.92;100.00
69153;BME280;56261;51.580;4.578;2023-08-01T04:10:14;100019.44;;;15.86;100.00
69153;BME280;56261;51.580;4.578;2023-08-01T04:12:40;100019.97;;;15.95;100.00
69153;BME280;56261;51.580;4.578;2023-08-01T04:15:07;100036.56;;;15.92;100.00
69153;BME280;56261;51.580;4.578;2023-08-01T04:17:33;100037.13;;;15.94;100.00
69153;BME280;56261;51.580;4.578;2023-08-01T04:19:58;100032.81;;;15.93;100.00
69153;BME280;56261;51.580;4.578;2023-08-01T04:22:24;100036.09;;;15.95;100.00
69153;BME280;56261;51.580;4.578;2023-08-01T04:24:49;100025.72;;;15.98;100.00
69153;BME280;56261;51.580;4.578;2023-08-01T04:27:15;100027.66;;;15.91;100.00
69153;BME280;56261;51.580;4.578;2023-08-01T04:29:40;100025.44;;;15.88;100.00
69153;BME280;56261;51.580;4.578;2023-08-01T04:32:06;100029.31;;;15.92;100.00
69153;BME280;56261;51.580;4.578;2023-08-01T04:34:32;100036.19;;;15.88;100.00
69153;BME280;56261;51.580;4.578;2023-08-01T04:36:57;100033.56;;;16.00;100.00
69153;BME280;56261;51.580;4.578;2023-08-01T04:39:22;100032.81;;;15.93;100.00
69153;BME280;56261;51.580;4.578;2023-08-01T04:41:48;100023.34;;;15.90;100.00
69153;BME280;56261;51.580;4.578;2023-08-01T04:44:15;100031.19;;;15.92;100.00
69153;BME280;56261;51.580;4.578;2023-08-01T04:46:40;100037.47;;;15.86;100.00
69153;BME280;56261;51.580;4.578;2023-08-01T04:49:05;100028.72;;;15.90;100.00
69153;BME280;56261;51.580;4.578;2023-08-01T04:51:31;100037.66;;;15.84;100.00
69153;BME280;56261;51.580;4.578;2023-08-01T04:53:56;100039.09;;;15.87;100.00
69153;BME280;56261;51.580;4.578;2023-08-01T04:56:22;100046.94;;;15.88;100.00
69153;BME280;56261;51.580;4.578;2023-08-01T04:58:47;100046.28;;;15.74;100.00
69153;BME280;56261;51.580;4.578;2023-08-01T05:01:12;100042.56;;;15.69;100.00
69153;BME280;56261;51.580;4.578;2023-08-01T05:03:38;100048.16;;;15.74;100.00
69153;BME280;56261;51.580;4.578;2023-08-01T05:06:03;100049.59;;;15.70;100.00
69153;BME280;56261;51.580;4.578;2023-08-01T05:08:29;100056.88;;;15.63;100.00
69153;BME280;56261;51.580;4.578;2023-08-01T05:10:54;100046.53;;;15.66;100.00
69153;BME280;56261;51.580;4.578;2023-08-01T05:13:19;100050.84;;;15.74;100.00
69153;BME280;56261;51.580;4.578;2023-08-01T05:15:45;100067.28;;;15.59;100.00
69153;BME280;56261;51.580;4.578;2023-08-01T05:18:13;100062.81;;;15.71;100.00
69153;BME280;56261;51.580;4.578;2023-08-01T05:20:40;100061.84;;;15.66;100.00
69153;BME280;56261;51.580;4.578;2023-08-01T05:23:05;100053.31;;;15.69;100.00
69153;BME280;56261;51.580;4.578;2023-08-01T05:25:31;100063.84;;;15.70;100.00
69153;BME280;56261;51.580;4.578;2023-08-01T05:27:56;100055.25;;;15.62;100.00
69153;BME280;56261;51.580;4.578;2023-08-01T05:30:22;100062.50;;;15.61;100.00
69153;BME280;56261;51.580;4.578;2023-08-01T05:32:47;100060.63;;;15.62;100.00
69153;BME280;56261;51.580;4.578;2023-08-01T05:35:12;100064.81;;;15.57;100.00
69153;BME280;56261;51.580;4.578;2023-08-01T05:37:38;100066.53;;;15.52;100.00
69153;BME280;56261;51.580;4.578;2023-08-01T05:40:04;100064.19;;;15.55;100.00
69153;BME280;56261;51.580;4.578;2023-08-01T05:42:30;100068.47;;;15.63;100.00
69153;BME280;56261;51.580;4.578;2023-08-01T05:44:55;100075.63;;;15.69;100.00
69153;BME280;56261;51.580;4.578;2023-08-01T05:47:21;100063.09;;;15.63;100.00
69153;BME280;56261;51.580;4.578;2023-08-01T05:49:48;100067.56;;;15.69;100.00
69153;BME280;56261;51.580;4.578;2023-08-01T05:52:14;100067.88;;;15.61;100.00
69153;BME280;56261;51.580;4.578;2023-08-01T05:54:39;100067.38;;;15.71;100.00
69153;BME280;56261;51.580;4.578;2023-08-01T05:57:05;100068.91;;;15.85;100.00
69153;BME280;56261;51.580;4.578;2023-08-01T05:59:31;100062.63;;;15.91;100.00
69153;BME280;56261;51.580;4.578;2023-08-01T06:01:56;100054.47;;;15.98;100.00
69153;BME280;56261;51.580;4.578;2023-08-01T06:04:22;100067.69;;;16.18;100.00
69153;BME280;56261;51.580;4.578;2023-08-01T06:06:47;100060.56;;;16.42;100.00
69153;BME280;56261;51.580;4.578;2023-08-01T06:09:13;100062.59;;;16.28;100.00
69153;BME280;56261;51.580;4.578;2023-08-01T06:11:38;100068.41;;;16.25;100.00
69153;BME280;56261;51.580;4.578;2023-08-01T06:14:03;100061.63;;;16.23;100.00
69153;BME280;56261;51.580;4.578;2023-08-01T06:16:29;100067.09;;;16.34;100.00
69153;BME280;56261;51.580;4.578;2023-08-01T06:18:54;100071.63;;;16.52;100.00
69153;BME280;56261;51.580;4.578;2023-08-01T06:21:20;100069.56;;;16.66;100.00
69153;BME280;56261;51.580;4.578;2023-08-01T06:23:45;100075.34;;;16.51;100.00
69153;BME280;56261;51.580;4.578;2023-08-01T06:26:10;100066.44;;;16.51;100.00
69153;BME280;56261;51.580;4.578;2023-08-01T06:28:36;100085.28;;;16.51;100.00
69153;BME280;56261;51.580;4.578;2023-08-01T06:31:01;100075.56;;;16.50;100.00
69153;BME280;56261;51.580;4.578;2023-08-01T06:33:28;100076.03;;;16.47;100.00
69153;BME280;56261;51.580;4.578;2023-08-01T06:35:53;100078.03;;;16.51;100.00
69153;BME280;56261;51.580;4.578;2023-08-01T06:38:19;100077.25;;;16.63;100.00
69153;BME280;56261;51.580;4.578;2023-08-01T06:40:44;100082.22;;;16.77;100.00
69153;BME280;56261;51.580;4.578;2023-08-01T06:43:09;100082.56;;;16.69;100.00
69153;BME280;56261;51.580;4.578;2023-08-01T06:45:35;100087.81;;;16.64;100.00
69153;BME280;56261;51.580;4.578;2023-08-01T06:48:00;100081.59;;;16.64;100.00
69153;BME280;56261;51.580;4.578;2023-08-01T06:50:26;100080.63;;;16.58;100.00
69153;BME280;56261;51.580;4.578;2023-08-01T06:52:51;100091.06;;;16.54;100.00
69153;BME280;56261;51.580;4.578;2023-08-01T06:55:16;100079.53;;;16.47;100.00
69153;BME280;56261;51.580;4.578;2023-08-01T06:57:42;100095.59;;;16.54;100.00
69153;BME280;56261;51.580;4.578;2023-08-01T07:00:08;100099.47;;;16.58;100.00
69153;BME280;56261;51.580;4.578;2023-08-01T07:02:33;100094.28;;;16.75;100.00
69153;BME280;56261;51.580;4.578;2023-08-01T07:04:59;100094.63;;;16.97;100.00
69153;BME280;56261;51.580;4.578;2023-08-01T07:07:24;100094.44;;;17.34;100.00
69153;BME280;56261;51.580;4.578;2023-08-01T07:09:50;100102.56;;;17.69;100.00
69153;BME280;56261;51.580;4.578;2023-08-01T07:12:15;100083.91;;;18.03;100.00
69153;BME280;56261;51.580;4.578;2023-08-01T07:14:41;100083.69;;;17.93;100.00
69153;BME280;56261;51.580;4.578;2023-08-01T07:17:06;100086.75;;;17.84;100.00
69153;BME280;56261;51.580;4.578;2023-08-01T07:19:31;100093.06;;;17.90;100.00
69153;BME280;56261;51.580;4.578;2023-08-01T07:21:57;100104.69;;;17.91;100.00
69153;BME280;56261;51.580;4.578;2023-08-01T07:24:22;100103.97;;;17.48;100.00
69153;BME280;56261;51.580;4.578;2023-08-01T07:26:47;100105.47;;;17.32;100.00
69153;BME280;56261;51.580;4.578;2023-08-01T07:29:13;100118.31;;;17.18;100.00
69153;BME280;56261;51.580;4.578;2023-08-01T07:31:41;100117.84;;;17.10;100.00
69153;BME280;56261;51.580;4.578;2023-08-01T07:34:06;100106.34;;;17.02;100.00
69153;BME280;56261;51.580;4.578;2023-08-01T07:36:32;100118.09;;;17.08;100.00
69153;BME280;56261;51.580;4.578;2023-08-01T07:38:57;100125.19;;;16.91;100.00
69153;BME280;56261;51.580;4.578;2023-08-01T07:41:22;100130.59;;;17.02;100.00
69153;BME280;56261;51.580;4.578;2023-08-01T07:43:48;100131.25;;;16.86;100.00
69153;BME280;56261;51.580;4.578;2023-08-01T07:46:14;100130.06;;;16.82;100.00
69153;BME280;56261;51.580;4.578;2023-08-01T07:48:39;100133.38;;;16.96;100.00
69153;BME280;56261;51.580;4.578;2023-08-01T07:51:05;100134.06;;;16.91;100.00
69153;BME280;56261;51.580;4.578;2023-08-01T07:53:33;100136.09;;;17.08;100.00
69153;BME280;56261;51.580;4.578;2023-08-01T07:55:58;100148.97;;;17.06;100.00
69153;BME280;56261;51.580;4.578;2023-08-01T07:58:30;100149.34;;;16.60;100.00
69153;BME280;56261;51.580;4.578;2023-08-01T08:00:56;100155.38;;;16.44;100.00
69153;BME280;56261;51.580;4.578;2023-08-01T08:03:21;100155.44;;;16.37;100.00
69153;BME280;56261;51.580;4.578;2023-08-01T08:05:49;100150.78;;;16.45;100.00
69153;BME280;56261;51.580;4.578;2023-08-01T08:08:14;100150.41;;;16.59;100.00
69153;BME280;56261;51.580;4.578;2023-08-01T08:10:39;100156.84;;;16.77;100.00
69153;BME280;56261;51.580;4.578;2023-08-01T08:13:05;100158.56;;;17.32;100.00
69153;BME280;56261;51.580;4.578;2023-08-01T08:15:30;100157.22;;;17.76;100.00
69153;BME280;56261;51.580;4.578;2023-08-01T08:18:00;100143.72;;;17.64;100.00
69153;BME280;56261;51.580;4.578;2023-08-01T08:20:25;100156.81;;;17.37;100.00
69153;BME280;56261;51.580;4.578;2023-08-01T08:22:51;100153.03;;;17.27;100.00
69153;BME280;56261;51.580;4.578;2023-08-01T08:25:16;100163.31;;;17.60;100.00
69153;BME280;56261;51.580;4.578;2023-08-01T08:27:41;100163.34;;;17.95;100.00
69153;BME280;56261;51.580;4.578;2023-08-01T08:30:07;100154.19;;;17.73;100.00
69153;BME280;56261;51.580;4.578;2023-08-01T08:32:34;100157.22;;;17.64;100.00
69153;BME280;56261;51.580;4.578;2023-08-01T08:35:00;100155.31;;;16.99;100.00
69153;BME280;56261;51.580;4.578;2023-08-01T08:37:25;100171.19;;;16.71;100.00
69153;BME280;56261;51.580;4.578;2023-08-01T08:39:51;100176.81;;;16.51;100.00
69153;BME280;56261;51.580;4.578;2023-08-01T08:42:18;100176.44;;;16.47;100.00
69153;BME280;56261;51.580;4.578;2023-08-01T08:44:44;100173.81;;;16.77;100.00
69153;BME280;56261;51.580;4.578;2023-08-01T08:47:16;100177.56;;;16.95;100.00
69153;BME280;56261;51.580;4.578;2023-08-01T08:49:42;100178.19;;;17.09;100.00
69153;BME280;56261;51.580;4.578;2023-08-01T08:52:09;100174.28;;;17.35;100.00
69153;BME280;56261;51.580;4.578;2023-08-01T08:54:35;100174.69;;;17.74;100.00
69153;BME280;56261;51.580;4.578;2023-08-01T08:57:05;100172.84;;;17.86;100.00
69153;BME280;56261;51.580;4.578;2023-08-01T08:59:32;100165.81;;;17.85;100.00
69153;BME280;56261;51.580;4.578;2023-08-01T09:01:57;100174.59;;;18.16;100.00
69153;BME280;56261;51.580;4.578;2023-08-01T09:04:22;100157.94;;;18.07;100.00
69153;BME280;56261;51.580;4.578;2023-08-01T09:06:51;100161.44;;;18.08;100.00
69153;BME280;56261;51.580;4.578;2023-08-01T09:09:20;100158.25;;;18.34;100.00
69153;BME280;56261;51.580;4.578;2023-08-01T09:11:48;100153.19;;;18.90;100.00
69153;BME280;56261;51.580;4.578;2023-08-01T09:14:15;100146.41;;;18.23;100.00
69153;BME280;56261;51.580;4.578;2023-08-01T09:16:41;100156.75;;;18.15;100.00
69153;BME280;56261;51.580;4.578;2023-08-01T09:19:08;100166.28;;;18.17;100.00
69153;BME280;56261;51.580;4.578;2023-08-01T09:21:35;100173.78;;;18.03;100.00
69153;BME280;56261;51.580;4.578;2023-08-01T09:24:10;100166.06;;;17.95;100.00
69153;BME280;56261;51.580;4.578;2023-08-01T09:26:37;100171.19;;;18.84;100.00
69153;BME280;56261;51.580;4.578;2023-08-01T09:29:02;100156.38;;;18.87;100.00
69153;BME280;56261;51.580;4.578;2023-08-01T09:31:33;100175.47;;;18.57;100.00
69153;BME280;56261;51.580;4.578;2023-08-01T09:33:59;100177.66;;;18.08;100.00
69153;BME280;56261;51.580;4.578;2023-08-01T09:36:25;100185.16;;;17.94;100.00
69153;BME280;56261;51.580;4.578;2023-08-01T09:38:51;100185.53;;;18.73;100.00
69153;BME280;56261;51.580;4.578;2023-08-01T09:41:19;100177.28;;;19.08;100.00
69153;BME280;56261;51.580;4.578;2023-08-01T09:43:46;100177.28;;;19.54;100.00
69153;BME280;56261;51.580;4.578;2023-08-01T09:46:12;100191.47;;;19.95;100.00
69153;BME280;56261;51.580;4.578;2023-08-01T09:48:38;100184.22;;;19.33;100.00
69153;BME280;56261;51.580;4.578;2023-08-01T09:51:11;100194.34;;;18.80;100.00
69153;BME280;56261;51.580;4.578;2023-08-01T09:53:57;100197.53;;;19.06;100.00
69153;BME280;56261;51.580;4.578;2023-08-01T09:56:26;100196.13;;;18.63;100.00
69153;BME280;56261;51.580;4.578;2023-08-01T09:58:54;100201.47;;;18.75;100.00
69153;BME280;56261;51.580;4.578;2023-08-01T10:01:22;100195.69;;;19.86;100.00
69153;BME280;56261;51.580;4.578;2023-08-01T10:03:49;100185.72;;;20.08;100.00
69153;BME280;56261;51.580;4.578;2023-08-01T10:06:20;100184.75;;;19.98;100.00
69153;BME280;56261;51.580;4.578;2023-08-01T10:08:47;100184.56;;;20.21;100.00
69153;BME280;56261;51.580;4.578;2023-08-01T10:11:18;100186.19;;;18.92;100.00
69153;BME280;56261;51.580;4.578;2023-08-01T10:13:44;100203.38;;;18.74;100.00
69153;BME280;56261;51.580;4.578;2023-08-01T10:16:10;100204.06;;;19.56;100.00
69153;BME280;56261;51.580;4.578;2023-08-01T10:18:37;100199.34;;;19.80;100.00
69153;BME280;56261;51.580;4.578;2023-08-01T10:21:05;100198.38;;;20.03;100.00
69153;BME280;56261;51.580;4.578;2023-08-01T10:23:33;100197.69;;;19.62;100.00
69153;BME280;56261;51.580;4.578;2023-08-01T10:25:59;100209.97;;;19.36;100.00
69153;BME280;56261;51.580;4.578;2023-08-01T10:28:36;100208.19;;;18.72;100.00
69153;BME280;56261;51.580;4.578;2023-08-01T10:33:34;100221.03;;;18.41;100.00
69153;BME280;56261;51.580;4.578;2023-08-01T10:35:59;100224.31;;;18.43;100.00
69153;BME280;56261;51.580;4.578;2023-08-01T10:38:25;100224.06;;;18.57;100.00
69153;BME280;56261;51.580;4.578;2023-08-01T10:40:50;100226.44;;;18.41;100.00
69153;BME280;56261;51.580;4.578;2023-08-01T10:43:23;100242.78;;;18.23;100.00
69153;BME280;56261;51.580;4.578;2023-08-01T10:46:00;100244.06;;;18.09;100.00
69153;BME280;56261;51.580;4.578;2023-08-01T10:48:26;100248.50;;;17.91;100.00
69153;BME280;56261;51.580;4.578;2023-08-01T10:50:55;100245.72;;;17.98;100.00
69153;BME280;56261;51.580;4.578;2023-08-01T10:53:24;100249.41;;;18.91;100.00
69153;BME280;56261;51.580;4.578;2023-08-01T10:55:49;100235.75;;;18.98;100.00
69153;BME280;56261;51.580;4.578;2023-08-01T10:58:15;100237.13;;;18.36;100.00
69153;BME280;56261;51.580;4.578;2023-08-01T11:00:43;100257.44;;;17.19;100.00
69153;BME280;56261;51.580;4.578;2023-08-01T11:03:09;100272.41;;;16.60;100.00
69153;BME280;56261;51.580;4.578;2023-08-01T11:05:34;100279.59;;;17.03;100.00
69153;BME280;56261;51.580;4.578;2023-08-01T11:08:02;100260.38;;;17.30;100.00
69153;BME280;56261;51.580;4.578;2023-08-01T11:10:30;100269.28;;;17.30;100.00
69153;BME280;56261;51.580;4.578;2023-08-01T11:12:56;100272.09;;;17.05;100.00
69153;BME280;56261;51.580;4.578;2023-08-01T11:15:22;100272.28;;;17.10;100.00
69153;BME280;56261;51.580;4.578;2023-08-01T11:17:49;100279.16;;;17.36;100.00
69153;BME280;56261;51.580;4.578;2023-08-01T11:20:16;100284.81;;;17.77;100.00
69153;BME280;56261;51.580;4.578;2023-08-01T11:25:16;100282.06;;;17.53;100.00
69153;BME280;56261;51.580;4.578;2023-08-01T11:27:41;100286.97;;;17.56;100.00
69153;BME280;56261;51.580;4.578;2023-08-01T11:30:07;100288.88;;;18.10;100.00
69153;BME280;56261;51.580;4.578;2023-08-01T11:32:38;100282.78;;;18.26;100.00
69153;BME280;56261;51.580;4.578;2023-08-01T11:35:03;100279.16;;;18.09;100.00
69153;BME280;56261;51.580;4.578;2023-08-01T11:37:30;100281.75;;;18.15;100.00
69153;BME280;56261;51.580;4.578;2023-08-01T11:39:56;100278.53;;;17.83;100.00
69153;BME280;56261;51.580;4.578;2023-08-01T11:42:23;100282.69;;;18.33;100.00
69153;BME280;56261;51.580;4.578;2023-08-01T11:44:48;100285.72;;;18.83;100.00
69153;BME280;56261;51.580;4.578;2023-08-01T11:47:15;100287.03;;;18.45;100.00
69153;BME280;56261;51.580;4.578;2023-08-01T11:49:49;100280.09;;;18.14;100.00
69153;BME280;56261;51.580;4.578;2023-08-01T11:52:27;100309.44;;;17.69;100.00
69153;BME280;56261;51.580;4.578;2023-08-01T11:54:56;100303.34;;;17.73;100.00
69153;BME280;56261;51.580;4.578;2023-08-01T11:57:22;100296.72;;;17.57;100.00
69153;BME280;56261;51.580;4.578;2023-08-01T11:59:51;100309.28;;;17.63;100.00
69153;BME280;56261;51.580;4.578;2023-08-01T12:02:35;100296.03;;;17.62;100.00
69153;BME280;56261;51.580;4.578;2023-08-01T12:05:01;100297.94;;;17.73;100.00
69153;BME280;56261;51.580;4.578;2023-08-01T12:07:26;100292.09;;;17.76;100.00
69153;BME280;56261;51.580;4.578;2023-08-01T12:09:59;100300.06;;;18.37;100.00
69153;BME280;56261;51.580;4.578;2023-08-01T12:12:28;100296.66;;;18.65;100.00
69153;BME280;56261;51.580;4.578;2023-08-01T12:14:54;100306.16;;;18.32;100.00
69153;BME280;56261;51.580;4.578;2023-08-01T12:17:20;100300.88;;;18.02;100.00
69153;BME280;56261;51.580;4.578;2023-08-01T12:19:46;100311.00;;;17.88;100.00
69153;BME280;56261;51.580;4.578;2023-08-01T12:22:12;100316.34;;;18.07;100.00
69153;BME280;56261;51.580;4.578;2023-08-01T12:24:38;100304.81;;;17.88;100.00
69153;BME280;56261;51.580;4.578;2023-08-01T12:27:12;100305.28;;;17.96;100.00
69153;BME280;56261;51.580;4.578;2023-08-01T12:29:38;100314.13;;;18.51;100.00
69153;BME280;56261;51.580;4.578;2023-08-01T12:32:03;100297.13;;;19.26;100.00
69153;BME280;56261;51.580;4.578;2023-08-01T12:34:29;100298.91;;;19.49;100.00
69153;BME280;56261;51.580;4.578;2023-08-01T12:36:54;100294.03;;;19.63;100.00
69153;BME280;56261;51.580;4.578;2023-08-01T12:39:20;100297.34;;;18.96;100.00
69153;BME280;56261;51.580;4.578;2023-08-01T12:41:45;100299.13;;;18.66;100.00